sensor_id;sensor_type;location;lat;lon;timestamp;P1;durP1;ratioP1;P2;durP2;ratioP2
59193;SDS011;44967;48.598;15.650;2023-04-24T00:00:03;6.43;;;4.40;;
59193;SDS011;44967;48.598;15.650;2023-04-24T00:02:34;4.90;;;4.13;;
59193;SDS011;44967;48.598;15.650;2023-04-24T00:05:03;4.60;;;3.83;;
59193;SDS011;44967;48.598;15.650;2023-04-24T00:07:33;4.50;;;3.60;;
59193;SDS011;44967;48.598;15.650;2023-04-24T00:09:59;5.28;;;3.70;;
59193;SDS011;44967;48.598;15.650;2023-04-24T00:12:25;4.28;;;3.58;;
59193;SDS011;44967;48.598;15.650;2023-04-24T00:14:52;6.38;;;3.80;;
59193;SDS011;44967;48.598;15.650;2023-04-24T00:17:18;3.78;;;3.35;;
59193;SDS011;44967;48.598;15.650;2023-04-24T00:19:48;4.13;;;2.90;;
59193;SDS011;44967;48.598;15.650;2023-04-24T00:22:15;4.05;;;3.40;;
59193;SDS011;44967;48.598;15.650;2023-04-24T00:24:41;4.95;;;3.42;;
59193;SDS011;44967;48.598;15.650;2023-04-24T00:27:07;5.40;;;3.65;;
59193;SDS011;44967;48.598;15.650;2023-04-24T00:29:33;3.20;;;2.90;;
59193;SDS011;44967;48.598;15.650;2023-04-24T00:31:58;4.65;;;2.88;;
59193;SDS011;44967;48.598;15.650;2023-04-24T00:34:24;5.20;;;3.70;;
59193;SDS011;44967;48.598;15.650;2023-04-24T00:36:50;4.43;;;3.50;;
59193;SDS011;44967;48.598;15.650;2023-04-24T00:39:20;5.80;;;3.28;;
59193;SDS011;44967;48.598;15.650;2023-04-24T00:41:46;6.50;;;2.90;;
59193;SDS011;44967;48.598;15.650;2023-04-24T00:44:13;3.40;;;3.10;;
59193;SDS011;44967;48.598;15.650;2023-04-24T00:46:40;6.80;;;4.07;;
59193;SDS011;44967;48.598;15.650;2023-04-24T00:49:06;5.57;;;4.15;;
59193;SDS011;44967;48.598;15.650;2023-04-24T00:51:32;5.43;;;4.32;;
59193;SDS011;44967;48.598;15.650;2023-04-24T00:54:00;4.18;;;3.60;;
59193;SDS011;44967;48.598;15.650;2023-04-24T00:56:26;6.03;;;3.70;;
59193;SDS011;44967;48.598;15.650;2023-04-24T00:58:53;7.25;;;3.63;;
59193;SDS011;44967;48.598;15.650;2023-04-24T01:01:19;7.05;;;4.00;;
59193;SDS011;44967;48.598;15.650;2023-04-24T01:03:46;4.18;;;3.63;;
59193;SDS011;44967;48.598;15.650;2023-04-24T01:06:14;4.53;;;3.83;;
59193;SDS011;44967;48.598;15.650;2023-04-24T01:08:40;4.40;;;3.75;;
59193;SDS011;44967;48.598;15.650;2023-04-24T01:11:07;5.78;;;3.75;;
59193;SDS011;44967;48.598;15.650;2023-04-24T01:13:33;5.00;;;3.58;;
59193;SDS011;44967;48.598;15.650;2023-04-24T01:15:59;3.72;;;3.00;;
59193;SDS011;44967;48.598;15.650;2023-04-24T01:18:26;4.55;;;3.72;;
59193;SDS011;44967;48.598;15.650;2023-04-24T01:20:54;4.40;;;3.33;;
59193;SDS011;44967;48.598;15.650;2023-04-24T01:23:23;6.55;;;3.90;;
59193;SDS011;44967;48.598;15.650;2023-04-24T01:25:49;5.20;;;3.90;;
59193;SDS011;44967;48.598;15.650;2023-04-24T01:28:15;4.20;;;3.72;;
59193;SDS011;44967;48.598;15.650;2023-04-24T01:30:42;5.22;;;3.75;;
59193;SDS011;44967;48.598;15.650;2023-04-24T01:33:09;4.25;;;3.85;;
59193;SDS011;44967;48.598;15.650;2023-04-24T01:35:35;5.45;;;4.22;;
59193;SDS011;44967;48.598;15.650;2023-04-24T01:38:02;4.88;;;3.97;;
59193;SDS011;44967;48.598;15.650;2023-04-24T01:40:28;5.03;;;4.30;;
59193;SDS011;44967;48.598;15.650;2023-04-24T01:42:54;5.93;;;4.25;;
59193;SDS011;44967;48.598;15.650;2023-04-24T01:45:20;6.60;;;4.75;;
59193;SDS011;44967;48.598;15.650;2023-04-24T01:47:46;5.28;;;3.95;;
59193;SDS011;44967;48.598;15.650;2023-04-24T01:50:12;4.85;;;3.47;;
59193;SDS011;44967;48.598;15.650;2023-04-24T01:52:38;5.40;;;3.55;;
59193;SDS011;44967;48.598;15.650;2023-04-24T01:55:05;5.07;;;3.58;;
59193;SDS011;44967;48.598;15.650;2023-04-24T01:57:33;6.93;;;4.03;;
59193;SDS011;44967;48.598;15.650;2023-04-24T01:59:59;5.50;;;3.83;;
59193;SDS011;44967;48.598;15.650;2023-04-24T02:02:25;4.97;;;4.20;;
59193;SDS011;44967;48.598;15.650;2023-04-24T02:04:53;4.20;;;3.75;;
59193;SDS011;44967;48.598;15.650;2023-04-24T02:07:19;4.82;;;3.65;;
59193;SDS011;44967;48.598;15.650;2023-04-24T02:09:45;4.60;;;3.53;;
59193;SDS011;44967;48.598;15.650;2023-04-24T02:12:11;5.38;;;3.65;;
59193;SDS011;44967;48.598;15.650;2023-04-24T02:14:37;5.68;;;3.67;;
59193;SDS011;44967;48.598;15.650;2023-04-24T02:17:02;3.42;;;3.13;;
59193;SDS011;44967;48.598;15.650;2023-04-24T02:19:28;4.45;;;3.75;;
59193;SDS011;44967;48.598;15.650;2023-04-24T02:21:54;5.88;;;4.00;;
59193;SDS011;44967;48.598;15.650;2023-04-24T02:24:19;4.97;;;4.05;;
59193;SDS011;44967;48.598;15.650;2023-04-24T02:26:45;7.07;;;4.47;;
59193;SDS011;44967;48.598;15.650;2023-04-24T02:29:11;6.07;;;4.35;;
59193;SDS011;44967;48.598;15.650;2023-04-24T02:31:36;5.07;;;4.55;;
59193;SDS011;44967;48.598;15.650;2023-04-24T02:34:02;6.60;;;5.18;;
59193;SDS011;44967;48.598;15.650;2023-04-24T02:36:27;6.25;;;4.57;;
59193;SDS011;44967;48.598;15.650;2023-04-24T02:38:53;5.85;;;4.50;;
59193;SDS011;44967;48.598;15.650;2023-04-24T02:41:20;7.15;;;5.43;;
59193;SDS011;44967;48.598;15.650;2023-04-24T02:43:45;7.55;;;4.35;;
59193;SDS011;44967;48.598;15.650;2023-04-24T02:46:11;4.80;;;4.30;;
59193;SDS011;44967;48.598;15.650;2023-04-24T02:48:36;6.15;;;3.95;;
59193;SDS011;44967;48.598;15.650;2023-04-24T02:51:02;5.00;;;4.40;;
59193;SDS011;44967;48.598;15.650;2023-04-24T02:53:28;7.07;;;4.38;;
59193;SDS011;44967;48.598;15.650;2023-04-24T02:55:55;6.03;;;4.55;;
59193;SDS011;44967;48.598;15.650;2023-04-24T02:58:22;5.60;;;4.18;;
59193;SDS011;44967;48.598;15.650;2023-04-24T03:00:47;5.78;;;4.38;;
59193;SDS011;44967;48.598;15.650;2023-04-24T03:03:14;5.47;;;4.18;;
59193;SDS011;44967;48.598;15.650;2023-04-24T03:05:40;5.93;;;4.43;;
59193;SDS011;44967;48.598;15.650;2023-04-24T03:08:06;7.30;;;5.07;;
59193;SDS011;44967;48.598;15.650;2023-04-24T03:10:31;7.38;;;4.35;;
59193;SDS011;44967;48.598;15.650;2023-04-24T03:12:57;6.03;;;3.95;;
59193;SDS011;44967;48.598;15.650;2023-04-24T03:15:23;5.32;;;4.32;;
59193;SDS011;44967;48.598;15.650;2023-04-24T03:17:48;7.18;;;3.97;;
59193;SDS011;44967;48.598;15.650;2023-04-24T03:20:14;5.13;;;4.55;;
59193;SDS011;44967;48.598;15.650;2023-04-24T03:22:40;5.03;;;4.32;;
59193;SDS011;44967;48.598;15.650;2023-04-24T03:25:06;4.55;;;4.15;;
59193;SDS011;44967;48.598;15.650;2023-04-24T03:27:35;5.78;;;3.75;;
59193;SDS011;44967;48.598;15.650;2023-04-24T03:30:00;4.18;;;3.75;;
59193;SDS011;44967;48.598;15.650;2023-04-24T03:32:27;5.88;;;4.43;;
59193;SDS011;44967;48.598;15.650;2023-04-24T03:34:53;4.65;;;3.35;;
59193;SDS011;44967;48.598;15.650;2023-04-24T03:37:18;3.92;;;3.28;;
59193;SDS011;44967;48.598;15.650;2023-04-24T03:39:44;5.28;;;3.10;;
59193;SDS011;44967;48.598;15.650;2023-04-24T03:42:10;4.25;;;2.92;;
59193;SDS011;44967;48.598;15.650;2023-04-24T03:44:36;3.58;;;2.83;;
59193;SDS011;44967;48.598;15.650;2023-04-24T03:47:02;3.28;;;2.97;;
59193;SDS011;44967;48.598;15.650;2023-04-24T03:49:28;3.85;;;2.80;;
59193;SDS011;44967;48.598;15.650;2023-04-24T03:51:53;5.25;;;2.70;;
59193;SDS011;44967;48.598;15.650;2023-04-24T03:54:19;4.55;;;2.80;;
59193;SDS011;44967;48.598;15.650;2023-04-24T03:56:45;3.00;;;2.70;;
59193;SDS011;44967;48.598;15.650;2023-04-24T03:59:11;4.20;;;2.53;;
59193;SDS011;44967;48.598;15.650;2023-04-24T04:01:37;3.35;;;2.40;;
59193;SDS011;44967;48.598;15.650;2023-04-24T04:04:05;3.20;;;2.55;;
59193;SDS011;44967;48.598;15.650;2023-04-24T04:06:31;4.00;;;2.47;;
59193;SDS011;44967;48.598;15.650;2023-04-24T04:08:57;3.97;;;3.05;;
59193;SDS011;44967;48.598;15.650;2023-04-24T04:11:23;3.10;;;2.60;;
59193;SDS011;44967;48.598;15.650;2023-04-24T04:13:49;3.50;;;2.40;;
59193;SDS011;44967;48.598;15.650;2023-04-24T04:16:15;4.20;;;2.60;;
59193;SDS011;44967;48.598;15.650;2023-04-24T04:18:44;3.15;;;2.72;;
59193;SDS011;44967;48.598;15.650;2023-04-24T04:21:10;2.90;;;2.60;;
59193;SDS011;44967;48.598;15.650;2023-04-24T04:23:36;2.25;;;2.05;;
59193;SDS011;44967;48.598;15.650;2023-04-24T04:26:05;2.70;;;2.50;;
59193;SDS011;44967;48.598;15.650;2023-04-24T04:28:31;4.00;;;3.00;;
59193;SDS011;44967;48.598;15.650;2023-04-24T04:30:57;5.20;;;2.80;;
59193;SDS011;44967;48.598;15.650;2023-04-24T04:33:26;2.78;;;2.58;;
59193;SDS011;44967;48.598;15.650;2023-04-24T04:35:52;4.93;;;2.78;;
59193;SDS011;44967;48.598;15.650;2023-04-24T04:38:19;3.17;;;2.88;;
59193;SDS011;44967;48.598;15.650;2023-04-24T04:40:45;4.68;;;3.58;;
59193;SDS011;44967;48.598;15.650;2023-04-24T04:43:11;4.05;;;3.10;;
59193;SDS011;44967;48.598;15.650;2023-04-24T04:45:38;2.63;;;2.35;;
59193;SDS011;44967;48.598;15.650;2023-04-24T04:48:06;3.03;;;2.70;;
59193;SDS011;44967;48.598;15.650;2023-04-24T04:50:38;4.93;;;2.70;;
59193;SDS011;44967;48.598;15.650;2023-04-24T04:53:04;3.75;;;3.05;;
59193;SDS011;44967;48.598;15.650;2023-04-24T04:55:31;3.78;;;2.38;;
59193;SDS011;44967;48.598;15.650;2023-04-24T04:57:56;2.45;;;2.25;;
59193;SDS011;44967;48.598;15.650;2023-04-24T05:00:22;3.42;;;2.58;;
59193;SDS011;44967;48.598;15.650;2023-04-24T05:02:50;2.90;;;2.50;;
59193;SDS011;44967;48.598;15.650;2023-04-24T05:05:16;3.33;;;2.50;;
59193;SDS011;44967;48.598;15.650;2023-04-24T05:07:43;5.75;;;2.20;;
59193;SDS011;44967;48.598;15.650;2023-04-24T05:10:09;2.72;;;2.50;;
59193;SDS011;44967;48.598;15.650;2023-04-24T05:12:35;3.35;;;2.67;;
59193;SDS011;44967;48.598;15.650;2023-04-24T05:15:00;2.90;;;2.22;;
59193;SDS011;44967;48.598;15.650;2023-04-24T05:17:26;3.88;;;2.83;;
59193;SDS011;44967;48.598;15.650;2023-04-24T05:19:52;4.53;;;2.60;;
59193;SDS011;44967;48.598;15.650;2023-04-24T05:22:18;4.35;;;2.47;;
59193;SDS011;44967;48.598;15.650;2023-04-24T05:24:46;2.92;;;2.58;;
59193;SDS011;44967;48.598;15.650;2023-04-24T05:27:12;2.63;;;2.40;;
59193;SDS011;44967;48.598;15.650;2023-04-24T05:29:38;3.70;;;2.30;;
59193;SDS011;44967;48.598;15.650;2023-04-24T05:32:03;3.33;;;2.67;;
59193;SDS011;44967;48.598;15.650;2023-04-24T05:34:29;2.47;;;2.22;;
59193;SDS011;44967;48.598;15.650;2023-04-24T05:36:55;3.95;;;2.30;;
59193;SDS011;44967;48.598;15.650;2023-04-24T05:39:21;3.05;;;2.75;;
59193;SDS011;44967;48.598;15.650;2023-04-24T05:41:47;4.53;;;2.20;;
59193;SDS011;44967;48.598;15.650;2023-04-24T05:44:12;3.00;;;2.50;;
59193;SDS011;44967;48.598;15.650;2023-04-24T05:46:38;5.22;;;2.75;;
59193;SDS011;44967;48.598;15.650;2023-04-24T05:49:03;2.50;;;1.90;;
59193;SDS011;44967;48.598;15.650;2023-04-24T05:51:29;2.15;;;1.95;;
59193;SDS011;44967;48.598;15.650;2023-04-24T05:53:57;2.58;;;2.13;;
59193;SDS011;44967;48.598;15.650;2023-04-24T05:56:23;2.15;;;1.95;;
59193;SDS011;44967;48.598;15.650;2023-04-24T05:58:49;3.75;;;2.30;;
59193;SDS011;44967;48.598;15.650;2023-04-24T06:01:14;3.45;;;2.53;;
59193;SDS011;44967;48.598;15.650;2023-04-24T06:03:41;2.33;;;2.13;;
59193;SDS011;44967;48.598;15.650;2023-04-24T06:06:07;3.88;;;2.33;;
59193;SDS011;44967;48.598;15.650;2023-04-24T06:08:34;2.35;;;2.15;;
59193;SDS011;44967;48.598;15.650;2023-04-24T06:11:00;3.08;;;2.40;;
59193;SDS011;44967;48.598;15.650;2023-04-24T06:13:26;2.92;;;2.15;;
59193;SDS011;44967;48.598;15.650;2023-04-24T06:15:52;3.22;;;2.40;;
59193;SDS011;44967;48.598;15.650;2023-04-24T06:18:18;2.80;;;2.20;;
59193;SDS011;44967;48.598;15.650;2023-04-24T06:20:44;3.17;;;2.22;;
59193;SDS011;44967;48.598;15.650;2023-04-24T06:23:10;3.58;;;2.38;;
59193;SDS011;44967;48.598;15.650;2023-04-24T06:25:36;2.95;;;2.00;;
59193;SDS011;44967;48.598;15.650;2023-04-24T06:28:02;3.28;;;2.10;;
59193;SDS011;44967;48.598;15.650;2023-04-24T06:30:28;2.08;;;1.88;;
59193;SDS011;44967;48.598;15.650;2023-04-24T06:32:54;1.80;;;1.70;;
59193;SDS011;44967;48.598;15.650;2023-04-24T06:35:20;2.47;;;1.70;;
59193;SDS011;44967;48.598;15.650;2023-04-24T06:37:45;2.88;;;2.20;;
59193;SDS011;44967;48.598;15.650;2023-04-24T06:40:11;2.60;;;2.05;;
59193;SDS011;44967;48.598;15.650;2023-04-24T06:42:37;2.90;;;1.67;;
59193;SDS011;44967;48.598;15.650;2023-04-24T06:45:02;3.75;;;2.15;;
59193;SDS011;44967;48.598;15.650;2023-04-24T06:47:29;3.00;;;1.70;;
59193;SDS011;44967;48.598;15.650;2023-04-24T06:49:55;2.22;;;1.90;;
59193;SDS011;44967;48.598;15.650;2023-04-24T06:52:20;2.17;;;1.95;;
59193;SDS011;44967;48.598;15.650;2023-04-24T06:54:46;2.35;;;2.05;;
59193;SDS011;44967;48.598;15.650;2023-04-24T06:57:12;2.25;;;2.05;;
59193;SDS011;44967;48.598;15.650;2023-04-24T06:59:38;2.63;;;2.00;;
59193;SDS011;44967;48.598;15.650;2023-04-24T07:02:04;1.80;;;1.70;;
59193;SDS011;44967;48.598;15.650;2023-04-24T07:04:30;7.80;;;3.15;;
59193;SDS011;44967;48.598;15.650;2023-04-24T07:06:56;2.20;;;1.70;;
59193;SDS011;44967;48.598;15.650;2023-04-24T07:09:23;1.33;;;1.23;;
59193;SDS011;44967;48.598;15.650;2023-04-24T07:11:50;1.65;;;1.55;;
59193;SDS011;44967;48.598;15.650;2023-04-24T07:14:17;1.45;;;1.20;;
59193;SDS011;44967;48.598;15.650;2023-04-24T07:16:43;2.03;;;1.50;;
59193;SDS011;44967;48.598;15.650;2023-04-24T07:19:09;1.58;;;1.40;;
59193;SDS011;44967;48.598;15.650;2023-04-24T07:21:35;1.75;;;1.48;;
59193;SDS011;44967;48.598;15.650;2023-04-24T07:24:01;1.85;;;1.40;;
59193;SDS011;44967;48.598;15.650;2023-04-24T07:26:27;3.45;;;1.45;;
59193;SDS011;44967;48.598;15.650;2023-04-24T07:28:56;1.67;;;1.30;;
59193;SDS011;44967;48.598;15.650;2023-04-24T07:31:22;4.45;;;1.70;;
59193;SDS011;44967;48.598;15.650;2023-04-24T07:33:48;1.65;;;1.20;;
59193;SDS011;44967;48.598;15.650;2023-04-24T07:36:14;2.95;;;1.15;;
59193;SDS011;44967;48.598;15.650;2023-04-24T07:38:47;1.88;;;1.48;;
59193;SDS011;44967;48.598;15.650;2023-04-24T07:41:13;1.98;;;1.42;;
59193;SDS011;44967;48.598;15.650;2023-04-24T07:43:39;1.45;;;1.15;;
59193;SDS011;44967;48.598;15.650;2023-04-24T07:46:05;1.20;;;1.10;;
59193;SDS011;44967;48.598;15.650;2023-04-24T07:48:31;1.67;;;1.27;;
59193;SDS011;44967;48.598;15.650;2023-04-24T07:50:57;4.05;;;1.20;;
59193;SDS011;44967;48.598;15.650;2023-04-24T07:53:23;1.80;;;1.20;;
59193;SDS011;44967;48.598;15.650;2023-04-24T07:55:48;1.30;;;1.20;;
59193;SDS011;44967;48.598;15.650;2023-04-24T07:58:14;1.60;;;1.50;;
59193;SDS011;44967;48.598;15.650;2023-04-24T08:00:40;2.17;;;1.70;;
59193;SDS011;44967;48.598;15.650;2023-04-24T08:03:06;1.95;;;1.40;;
59193;SDS011;44967;48.598;15.650;2023-04-24T08:05:32;2.30;;;1.50;;
59193;SDS011;44967;48.598;15.650;2023-04-24T08:07:58;1.55;;;1.42;;
59193;SDS011;44967;48.598;15.650;2023-04-24T08:10:24;2.22;;;1.75;;
59193;SDS011;44967;48.598;15.650;2023-04-24T08:12:50;1.40;;;1.30;;
59193;SDS011;44967;48.598;15.650;2023-04-24T08:15:16;1.25;;;1.10;;
59193;SDS011;44967;48.598;15.650;2023-04-24T08:17:42;1.40;;;1.30;;
59193;SDS011;44967;48.598;15.650;2023-04-24T08:20:08;1.30;;;1.20;;
59193;SDS011;44967;48.598;15.650;2023-04-24T08:22:39;1.48;;;0.90;;
59193;SDS011;44967;48.598;15.650;2023-04-24T08:25:05;1.05;;;1.05;;
59193;SDS011;44967;48.598;15.650;2023-04-24T08:27:31;1.52;;;0.90;;
59193;SDS011;44967;48.598;15.650;2023-04-24T08:29:57;1.08;;;0.98;;
59193;SDS011;44967;48.598;15.650;2023-04-24T08:32:24;1.08;;;0.98;;
59193;SDS011;44967;48.598;15.650;2023-04-24T08:34:49;1.98;;;0.90;;
59193;SDS011;44967;48.598;15.650;2023-04-24T08:37:15;1.05;;;0.75;;
59193;SDS011;44967;48.598;15.650;2023-04-24T08:39:40;0.50;;;0.50;;
59193;SDS011;44967;48.598;15.650;2023-04-24T08:42:06;2.38;;;1.20;;
59193;SDS011;44967;48.598;15.650;2023-04-24T08:44:33;0.95;;;0.77;;
59193;SDS011;44967;48.598;15.650;2023-04-24T08:47:04;0.57;;;0.57;;
59193;SDS011;44967;48.598;15.650;2023-04-24T08:49:30;0.60;;;0.57;;
59193;SDS011;44967;48.598;15.650;2023-04-24T08:51:56;0.57;;;0.57;;
59193;SDS011;44967;48.598;15.650;2023-04-24T08:54:22;0.60;;;0.50;;
59193;SDS011;44967;48.598;15.650;2023-04-24T08:56:48;0.40;;;0.40;;
59193;SDS011;44967;48.598;15.650;2023-04-24T08:59:15;0.60;;;0.40;;
59193;SDS011;44967;48.598;15.650;2023-04-24T09:01:41;0.30;;;0.30;;
59193;SDS011;44967;48.598;15.650;2023-04-24T09:04:08;0.43;;;0.40;;
59193;SDS011;44967;48.598;15.650;2023-04-24T09:06:38;1.55;;;0.30;;
59193;SDS011;44967;48.598;15.650;2023-04-24T09:09:04;0.47;;;0.40;;
59193;SDS011;44967;48.598;15.650;2023-04-24T09:11:31;0.25;;;0.25;;
59193;SDS011;44967;48.598;15.650;2023-04-24T09:13:58;0.38;;;0.30;;
59193;SDS011;44967;48.598;15.650;2023-04-24T09:16:24;0.90;;;0.45;;
59193;SDS011;44967;48.598;15.650;2023-04-24T09:18:51;0.30;;;0.30;;
59193;SDS011;44967;48.598;15.650;2023-04-24T09:21:17;0.30;;;0.30;;
59193;SDS011;44967;48.598;15.650;2023-04-24T09:23:42;0.30;;;0.30;;
59193;SDS011;44967;48.598;15.650;2023-04-24T09:26:09;0.35;;;0.35;;
59193;SDS011;44967;48.598;15.650;2023-04-24T09:28:36;0.40;;;0.30;;
59193;SDS011;44967;48.598;15.650;2023-04-24T09:31:08;1.20;;;0.35;;
59193;SDS011;44967;48.598;15.650;2023-04-24T09:33:59;0.40;;;0.35;;
59193;SDS011;44967;48.598;15.650;2023-04-24T09:36:30;0.40;;;0.40;;
59193;SDS011;44967;48.598;15.650;2023-04-24T09:39:03;0.50;;;0.47;;
59193;SDS011;44967;48.598;15.650;2023-04-24T09:41:31;0.55;;;0.50;;
59193;SDS011;44967;48.598;15.650;2023-04-24T09:44:01;0.43;;;0.40;;
59193;SDS011;44967;48.598;15.650;2023-04-24T09:46:37;1.10;;;0.32;;
59193;SDS011;44967;48.598;15.650;2023-04-24T09:49:10;0.30;;;0.30;;
59193;SDS011;44967;48.598;15.650;2023-04-24T09:51:38;0.57;;;0.47;;
59193;SDS011;44967;48.598;15.650;2023-04-24T09:54:11;0.50;;;0.50;;
59193;SDS011;44967;48.598;15.650;2023-04-24T09:56:41;2.88;;;0.60;;
59193;SDS011;44967;48.598;15.650;2023-04-24T09:59:09;0.40;;;0.40;;
59193;SDS011;44967;48.598;15.650;2023-04-24T10:01:35;0.60;;;0.60;;
59193;SDS011;44967;48.598;15.650;2023-04-24T10:04:01;0.50;;;0.50;;
59193;SDS011;44967;48.598;15.650;2023-04-24T10:06:33;0.52;;;0.50;;
59193;SDS011;44967;48.598;15.650;2023-04-24T10:08:59;0.68;;;0.40;;
59193;SDS011;44967;48.598;15.650;2023-04-24T10:11:29;0.30;;;0.30;;
59193;SDS011;44967;48.598;15.650;2023-04-24T10:13:56;0.77;;;0.47;;
59193;SDS011;44967;48.598;15.650;2023-04-24T10:16:23;0.47;;;0.47;;
59193;SDS011;44967;48.598;15.650;2023-04-24T10:18:49;0.60;;;0.43;;
59193;SDS011;44967;48.598;15.650;2023-04-24T10:21:16;0.30;;;0.30;;
59193;SDS011;44967;48.598;15.650;2023-04-24T10:23:42;0.20;;;0.20;;
59193;SDS011;44967;48.598;15.650;2023-04-24T10:26:12;0.65;;;0.38;;
59193;SDS011;44967;48.598;15.650;2023-04-24T10:28:46;0.30;;;0.30;;
59193;SDS011;44967;48.598;15.650;2023-04-24T10:31:16;0.52;;;0.52;;
59193;SDS011;44967;48.598;15.650;2023-04-24T10:33:43;0.93;;;0.52;;
59193;SDS011;44967;48.598;15.650;2023-04-24T10:36:11;0.47;;;0.32;;
59193;SDS011;44967;48.598;15.650;2023-04-24T10:38:41;0.40;;;0.40;;
59193;SDS011;44967;48.598;15.650;2023-04-24T10:41:09;0.63;;;0.30;;
59193;SDS011;44967;48.598;15.650;2023-04-24T10:43:41;0.65;;;0.30;;
59193;SDS011;44967;48.598;15.650;2023-04-24T10:46:08;1.48;;;0.50;;
59193;SDS011;44967;48.598;15.650;2023-04-24T10:48:35;1.85;;;0.30;;
59193;SDS011;44967;48.598;15.650;2023-04-24T10:51:10;0.93;;;0.45;;
59193;SDS011;44967;48.598;15.650;2023-04-24T10:53:37;0.30;;;0.30;;
59193;SDS011;44967;48.598;15.650;2023-04-24T10:56:06;1.55;;;0.45;;
59193;SDS011;44967;48.598;15.650;2023-04-24T10:58:38;0.40;;;0.40;;
59193;SDS011;44967;48.598;15.650;2023-04-24T11:01:25;1.38;;;0.50;;
59193;SDS011;44967;48.598;15.650;2023-04-24T11:03:58;0.77;;;0.45;;
59193;SDS011;44967;48.598;15.650;2023-04-24T11:06:33;0.50;;;0.40;;
59193;SDS011;44967;48.598;15.650;2023-04-24T11:09:03;0.43;;;0.40;;
59193;SDS011;44967;48.598;15.650;2023-04-24T11:11:31;0.52;;;0.40;;
59193;SDS011;44967;48.598;15.650;2023-04-24T11:18:52;1.13;;;0.43;;
59193;SDS011;44967;48.598;15.650;2023-04-24T11:21:25;0.80;;;0.40;;
59193;SDS011;44967;48.598;15.650;2023-04-24T11:23:57;0.85;;;0.43;;
59193;SDS011;44967;48.598;15.650;2023-04-24T11:26:23;0.50;;;0.50;;
59193;SDS011;44967;48.598;15.650;2023-04-24T11:28:55;0.40;;;0.40;;
59193;SDS011;44967;48.598;15.650;2023-04-24T11:31:37;0.43;;;0.32;;
59193;SDS011;44967;48.598;15.650;2023-04-24T11:34:09;0.75;;;0.52;;
59193;SDS011;44967;48.598;15.650;2023-04-24T11:36:37;0.60;;;0.35;;
59193;SDS011;44967;48.598;15.650;2023-04-24T11:39:03;0.70;;;0.38;;
59193;SDS011;44967;48.598;15.650;2023-04-24T11:41:30;0.40;;;0.40;;
59193;SDS011;44967;48.598;15.650;2023-04-24T11:43:56;0.68;;;0.30;;
59193;SDS011;44967;48.598;15.650;2023-04-24T11:46:23;0.30;;;0.30;;
59193;SDS011;44967;48.598;15.650;2023-04-24T11:48:51;0.65;;;0.30;;
59193;SDS011;44967;48.598;15.650;2023-04-24T11:51:17;0.50;;;0.40;;
59193;SDS011;44967;48.598;15.650;2023-04-24T11:53:42;0.40;;;0.40;;
59193;SDS011;44967;48.598;15.650;2023-04-24T11:56:08;0.60;;;0.60;;
59193;SDS011;44967;48.598;15.650;2023-04-24T11:58:35;0.40;;;0.40;;
59193;SDS011;44967;48.598;15.650;2023-04-24T12:01:01;0.95;;;0.50;;
59193;SDS011;44967;48.598;15.650;2023-04-24T12:03:27;1.65;;;0.40;;
59193;SDS011;44967;48.598;15.650;2023-04-24T12:06:07;0.30;;;0.30;;
59193;SDS011;44967;48.598;15.650;2023-04-24T12:08:33;0.30;;;0.30;;
59193;SDS011;44967;48.598;15.650;2023-04-24T12:11:03;2.45;;;0.40;;
59193;SDS011;44967;48.598;15.650;2023-04-24T12:13:30;0.40;;;0.30;;
59193;SDS011;44967;48.598;15.650;2023-04-24T12:15:59;1.02;;;0.30;;
59193;SDS011;44967;48.598;15.650;2023-04-24T12:18:26;0.30;;;0.30;;
59193;SDS011;44967;48.598;15.650;2023-04-24T12:20:53;0.38;;;0.38;;
59193;SDS011;44967;48.598;15.650;2023-04-24T12:23:34;1.00;;;0.30;;
59193;SDS011;44967;48.598;15.650;2023-04-24T12:26:03;1.50;;;0.50;;
59193;SDS011;44967;48.598;15.650;2023-04-24T12:28:34;0.35;;;0.35;;
59193;SDS011;44967;48.598;15.650;2023-04-24T12:31:03;0.47;;;0.32;;
59193;SDS011;44967;48.598;15.650;2023-04-24T12:33:32;0.35;;;0.20;;
59193;SDS011;44967;48.598;15.650;2023-04-24T12:35:58;0.95;;;0.30;;
59193;SDS011;44967;48.598;15.650;2023-04-24T12:38:25;1.00;;;0.30;;
59193;SDS011;44967;48.598;15.650;2023-04-24T12:41:02;0.40;;;0.40;;
59193;SDS011;44967;48.598;15.650;2023-04-24T12:43:32;1.85;;;0.52;;
59193;SDS011;44967;48.598;15.650;2023-04-24T12:45:59;0.55;;;0.30;;
59193;SDS011;44967;48.598;15.650;2023-04-24T12:48:28;0.20;;;0.20;;
59193;SDS011;44967;48.598;15.650;2023-04-24T12:50:54;1.38;;;0.50;;
59193;SDS011;44967;48.598;15.650;2023-04-24T12:53:22;0.90;;;0.57;;
59193;SDS011;44967;48.598;15.650;2023-04-24T12:55:47;3.05;;;0.60;;
59193;SDS011;44967;48.598;15.650;2023-04-24T12:58:19;1.42;;;0.47;;
59193;SDS011;44967;48.598;15.650;2023-04-24T13:00:45;0.85;;;0.68;;
59193;SDS011;44967;48.598;15.650;2023-04-24T13:03:12;0.93;;;0.50;;
59193;SDS011;44967;48.598;15.650;2023-04-24T13:05:37;0.80;;;0.40;;
59193;SDS011;44967;48.598;15.650;2023-04-24T13:08:04;1.83;;;0.55;;
59193;SDS011;44967;48.598;15.650;2023-04-24T13:10:29;1.00;;;0.55;;
59193;SDS011;44967;48.598;15.650;2023-04-24T13:12:55;0.40;;;0.40;;
59193;SDS011;44967;48.598;15.650;2023-04-24T13:15:22;0.52;;;0.30;;
59193;SDS011;44967;48.598;15.650;2023-04-24T13:17:47;1.85;;;0.40;;
59193;SDS011;44967;48.598;15.650;2023-04-24T13:20:13;0.20;;;0.20;;
59193;SDS011;44967;48.598;15.650;2023-04-24T13:22:39;0.77;;;0.20;;
59193;SDS011;44967;48.598;15.650;2023-04-24T13:25:04;0.40;;;0.30;;
59193;SDS011;44967;48.598;15.650;2023-04-24T13:27:34;1.00;;;0.30;;
59193;SDS011;44967;48.598;15.650;2023-04-24T13:30:00;0.77;;;0.30;;
59193;SDS011;44967;48.598;15.650;2023-04-24T13:32:26;0.30;;;0.30;;
59193;SDS011;44967;48.598;15.650;2023-04-24T13:34:52;0.68;;;0.10;;
59193;SDS011;44967;48.598;15.650;2023-04-24T13:37:18;0.25;;;0.20;;
59193;SDS011;44967;48.598;15.650;2023-04-24T13:39:44;1.85;;;0.30;;
59193;SDS011;44967;48.598;15.650;2023-04-24T13:42:09;0.47;;;0.20;;
59193;SDS011;44967;48.598;15.650;2023-04-24T13:44:35;0.68;;;0.30;;
59193;SDS011;44967;48.598;15.650;2023-04-24T13:47:01;1.10;;;0.30;;
59193;SDS011;44967;48.598;15.650;2023-04-24T13:49:27;0.50;;;0.25;;
59193;SDS011;44967;48.598;15.650;2023-04-24T13:51:54;0.30;;;0.30;;
59193;SDS011;44967;48.598;15.650;2023-04-24T13:54:20;0.30;;;0.30;;
59193;SDS011;44967;48.598;15.650;2023-04-24T13:56:48;0.20;;;0.20;;
59193;SDS011;44967;48.598;15.650;2023-04-24T13:59:14;0.10;;;0.10;;
59193;SDS011;44967;48.598;15.650;2023-04-24T14:01:40;0.30;;;0.30;;
59193;SDS011;44967;48.598;15.650;2023-04-24T14:04:06;0.38;;;0.30;;
59193;SDS011;44967;48.598;15.650;2023-04-24T14:06:32;1.33;;;0.30;;
59193;SDS011;44967;48.598;15.650;2023-04-24T14:08:57;0.30;;;0.30;;
59193;SDS011;44967;48.598;15.650;2023-04-24T14:11:23;0.30;;;0.30;;
59193;SDS011;44967;48.598;15.650;2023-04-24T14:13:49;0.55;;;0.25;;
59193;SDS011;44967;48.598;15.650;2023-04-24T14:16:15;1.50;;;1.15;;
59193;SDS011;44967;48.598;15.650;2023-04-24T14:18:40;2.95;;;0.20;;
59193;SDS011;44967;48.598;15.650;2023-04-24T14:21:07;0.10;;;0.10;;
59193;SDS011;44967;48.598;15.650;2023-04-24T14:23:35;0.77;;;0.20;;
59193;SDS011;44967;48.598;15.650;2023-04-24T14:26:01;2.30;;;0.30;;
59193;SDS011;44967;48.598;15.650;2023-04-24T14:28:28;0.75;;;0.20;;
59193;SDS011;44967;48.598;15.650;2023-04-24T14:30:54;0.20;;;0.20;;
59193;SDS011;44967;48.598;15.650;2023-04-24T14:33:19;0.17;;;0.17;;
59193;SDS011;44967;48.598;15.650;2023-04-24T14:35:45;0.20;;;0.20;;